Accueil
METAR-TAF:

METAR-TAF

Aéroports :

Laupheim, Allemagne

latitude: 48-13N, longitude: 009-55E, altitude: 538 m

Observation

Le bulletin a été fait il y a 1 heure et 3 minutes, à 11:20 UTC
Vent 8 kt de ouest/sud-ouest
Température 26°C
Humidité 45%
Pression 1020 hPa
Visibilité 10 km ou plus
Nuages épars à une hauteur de 5000 ft
Nuages fragmentés à une hauteur de 16000 ft

METAR: ETHL 121120Z 24008KT 9999 SCT050 BKN160 26/13 Q1020 BLU

Heure: 14:23 (12:23 UTC)

Prévision

Le bulletin a été fait il y a 29 heures et 3 minutes, à 07:20 UTC
Prévision valable du 11 à 08 UTC au 11 à 17 UTC
Vent 5 kt de nord/nord-est
Visibilité 10 km ou plus
Quelques nuages à une hauteur de 4000 ft

TAF: ETHL 110720Z 1108/1117 02005KT 9999 NSW FEW040

Observations et prévisions météorologiques de plus de 4000 aéroports (messages METAR et TAF).

Les stations disponibles sont représentées par des disques jaunes et rouges sur la carte.

Passer la souris dessus pour voir le nom de la station.

Cliquer dessus pour voir les observations et prévisions météorologiques.

Pour changer de carte: cliquez sur les boutons verts avec une croix noire pour zoomer, sur le bouton vert avec un tiret pour effectuer un zoom arrière, ou sur les flèches vertes pour les cartes adjacentes.


METAR-TAF: